sensor_id;sensor_type;location;lat;lon;timestamp;temperature;humidity
15357;DHT22;7778;48.792;9.260;2023-06-04T00:01:32;15.80;99.90
15357;DHT22;7778;48.792;9.260;2023-06-04T00:04:18;15.70;99.90
15357;DHT22;7778;48.792;9.260;2023-06-04T00:07:04;15.80;99.90
15357;DHT22;7778;48.792;9.260;2023-06-04T00:09:52;15.80;99.90
15357;DHT22;7778;48.792;9.260;2023-06-04T00:12:38;15.80;99.90
15357;DHT22;7778;48.792;9.260;2023-06-04T00:15:23;15.90;99.90
15357;DHT22;7778;48.792;9.260;2023-06-04T00:18:11;16.00;99.90
15357;DHT22;7778;48.792;9.260;2023-06-04T00:20:58;16.00;99.90
15357;DHT22;7778;48.792;9.260;2023-06-04T00:23:43;15.90;99.90
15357;DHT22;7778;48.792;9.260;2023-06-04T00:26:32;15.90;99.90
15357;DHT22;7778;48.792;9.260;2023-06-04T00:29:18;15.80;99.90
15357;DHT22;7778;48.792;9.260;2023-06-04T00:32:04;15.70;99.90
15357;DHT22;7778;48.792;9.260;2023-06-04T00:34:54;15.70;99.90
15357;DHT22;7778;48.792;9.260;2023-06-04T00:37:42;15.70;99.90
15357;DHT22;7778;48.792;9.260;2023-06-04T00:40:27;15.70;99.90
15357;DHT22;7778;48.792;9.260;2023-06-04T00:43:13;15.70;99.90
15357;DHT22;7778;48.792;9.260;2023-06-04T00:45:58;15.60;99.90
15357;DHT22;7778;48.792;9.260;2023-06-04T00:48:44;15.60;99.90
15357;DHT22;7778;48.792;9.260;2023-06-04T00:51:32;15.50;99.90
15357;DHT22;7778;48.792;9.260;2023-06-04T00:54:19;15.50;99.90
15357;DHT22;7778;48.792;9.260;2023-06-04T00:57:06;15.30;99.90
15357;DHT22;7778;48.792;9.260;2023-06-04T00:59:52;15.20;99.90
15357;DHT22;7778;48.792;9.260;2023-06-04T01:02:39;15.30;99.90
15357;DHT22;7778;48.792;9.260;2023-06-04T01:05:29;15.20;99.90
15357;DHT22;7778;48.792;9.260;2023-06-04T01:08:23;15.20;99.90
15357;DHT22;7778;48.792;9.260;2023-06-04T01:11:09;15.20;99.90
15357;DHT22;7778;48.792;9.260;2023-06-04T01:13:56;15.30;99.90
15357;DHT22;7778;48.792;9.260;2023-06-04T01:16:46;15.20;99.90
15357;DHT22;7778;48.792;9.260;2023-06-04T01:20:13;15.20;99.90
15357;DHT22;7778;48.792;9.260;2023-06-04T01:23:25;15.10;99.90
15357;DHT22;7778;48.792;9.260;2023-06-04T01:26:21;15.00;99.90
15357;DHT22;7778;48.792;9.260;2023-06-04T01:29:07;15.00;99.90
15357;DHT22;7778;48.792;9.260;2023-06-04T01:31:52;15.00;99.90
15357;DHT22;7778;48.792;9.260;2023-06-04T01:34:44;15.00;99.90
15357;DHT22;7778;48.792;9.260;2023-06-04T01:37:31;15.00;99.90
15357;DHT22;7778;48.792;9.260;2023-06-04T01:40:19;15.10;99.90
15357;DHT22;7778;48.792;9.260;2023-06-04T01:43:05;14.80;99.90
15357;DHT22;7778;48.792;9.260;2023-06-04T01:45:51;14.80;99.90
15357;DHT22;7778;48.792;9.260;2023-06-04T01:48:38;14.80;99.90
15357;DHT22;7778;48.792;9.260;2023-06-04T01:51:25;14.60;99.90
15357;DHT22;7778;48.792;9.260;2023-06-04T01:54:10;14.80;99.90
15357;DHT22;7778;48.792;9.260;2023-06-04T01:56:57;14.60;99.90
15357;DHT22;7778;48.792;9.260;2023-06-04T01:59:43;14.50;99.90
15357;DHT22;7778;48.792;9.260;2023-06-04T02:02:29;14.50;99.90
15357;DHT22;7778;48.792;9.260;2023-06-04T02:05:15;14.50;99.90
15357;DHT22;7778;48.792;9.260;2023-06-04T02:08:01;14.40;99.90
15357;DHT22;7778;48.792;9.260;2023-06-04T02:10:49;14.20;99.90
15357;DHT22;7778;48.792;9.260;2023-06-04T02:13:39;14.10;99.90
15357;DHT22;7778;48.792;9.260;2023-06-04T02:16:25;14.00;99.90
15357;DHT22;7778;48.792;9.260;2023-06-04T02:19:10;14.00;99.90
15357;DHT22;7778;48.792;9.260;2023-06-04T02:21:56;14.10;99.90
15357;DHT22;7778;48.792;9.260;2023-06-04T02:24:42;14.10;99.90
15357;DHT22;7778;48.792;9.260;2023-06-04T02:27:30;14.20;99.90
15357;DHT22;7778;48.792;9.260;2023-06-04T02:30:20;14.20;99.90
15357;DHT22;7778;48.792;9.260;2023-06-04T02:33:06;14.20;99.90
15357;DHT22;7778;48.792;9.260;2023-06-04T02:35:54;14.10;99.90
15357;DHT22;7778;48.792;9.260;2023-06-04T02:38:40;14.10;99.90
15357;DHT22;7778;48.792;9.260;2023-06-04T02:41:28;14.30;99.90
15357;DHT22;7778;48.792;9.260;2023-06-04T02:44:13;14.40;99.90
15357;DHT22;7778;48.792;9.260;2023-06-04T02:47:01;14.30;99.90
15357;DHT22;7778;48.792;9.260;2023-06-04T02:49:47;14.30;99.90
15357;DHT22;7778;48.792;9.260;2023-06-04T02:52:33;14.30;99.90
15357;DHT22;7778;48.792;9.260;2023-06-04T02:55:21;14.20;99.90
15357;DHT22;7778;48.792;9.260;2023-06-04T02:58:06;14.10;99.90
15357;DHT22;7778;48.792;9.260;2023-06-04T03:00:52;14.20;99.90
15357;DHT22;7778;48.792;9.260;2023-06-04T03:03:40;14.10;99.90
15357;DHT22;7778;48.792;9.260;2023-06-04T03:06:29;14.00;99.90
15357;DHT22;7778;48.792;9.260;2023-06-04T03:09:15;13.90;99.90
15357;DHT22;7778;48.792;9.260;2023-06-04T03:12:00;13.90;99.90
15357;DHT22;7778;48.792;9.260;2023-06-04T03:14:46;13.80;99.90
15357;DHT22;7778;48.792;9.260;2023-06-04T03:17:32;13.80;99.90
15357;DHT22;7778;48.792;9.260;2023-06-04T03:20:19;13.70;99.90
15357;DHT22;7778;48.792;9.260;2023-06-04T03:23:08;13.60;99.90
15357;DHT22;7778;48.792;9.260;2023-06-04T03:25:54;13.60;99.90
15357;DHT22;7778;48.792;9.260;2023-06-04T03:28:39;13.50;99.90
15357;DHT22;7778;48.792;9.260;2023-06-04T03:31:25;13.50;99.90
15357;DHT22;7778;48.792;9.260;2023-06-04T03:34:11;13.40;99.90
15357;DHT22;7778;48.792;9.260;2023-06-04T03:36:59;13.40;99.90
15357;DHT22;7778;48.792;9.260;2023-06-04T03:39:45;13.50;99.90
15357;DHT22;7778;48.792;9.260;2023-06-04T03:42:30;13.50;99.90
15357;DHT22;7778;48.792;9.260;2023-06-04T03:45:16;13.60;99.90
15357;DHT22;7778;48.792;9.260;2023-06-04T03:48:02;13.60;99.90
15357;DHT22;7778;48.792;9.260;2023-06-04T03:50:48;13.60;99.90
15357;DHT22;7778;48.792;9.260;2023-06-04T03:53:35;13.60;99.90
15357;DHT22;7778;48.792;9.260;2023-06-04T03:56:20;13.90;99.90
15357;DHT22;7778;48.792;9.260;2023-06-04T03:59:06;13.70;99.90
15357;DHT22;7778;48.792;9.260;2023-06-04T04:01:52;13.80;99.90
15357;DHT22;7778;48.792;9.260;2023-06-04T04:04:37;13.90;99.90
15357;DHT22;7778;48.792;9.260;2023-06-04T04:07:23;13.90;99.90
15357;DHT22;7778;48.792;9.260;2023-06-04T04:10:11;14.00;99.90
15357;DHT22;7778;48.792;9.260;2023-06-04T04:12:56;13.90;99.90
15357;DHT22;7778;48.792;9.260;2023-06-04T04:15:42;13.80;99.90
15357;DHT22;7778;48.792;9.260;2023-06-04T04:18:27;13.70;99.90
15357;DHT22;7778;48.792;9.260;2023-06-04T04:21:13;13.70;99.90
15357;DHT22;7778;48.792;9.260;2023-06-04T04:23:59;13.80;99.90
15357;DHT22;7778;48.792;9.260;2023-06-04T04:26:46;13.80;99.90
15357;DHT22;7778;48.792;9.260;2023-06-04T04:29:33;13.60;99.90
15357;DHT22;7778;48.792;9.260;2023-06-04T04:32:19;13.70;99.90
15357;DHT22;7778;48.792;9.260;2023-06-04T04:35:07;13.70;99.90
15357;DHT22;7778;48.792;9.260;2023-06-04T04:37:53;13.90;99.90
15357;DHT22;7778;48.792;9.260;2023-06-04T04:40:39;13.90;99.90
15357;DHT22;7778;48.792;9.260;2023-06-04T04:43:33;14.00;99.90
15357;DHT22;7778;48.792;9.260;2023-06-04T04:46:20;13.80;99.90
15357;DHT22;7778;48.792;9.260;2023-06-04T04:49:05;13.90;99.90
15357;DHT22;7778;48.792;9.260;2023-06-04T04:51:51;13.90;99.90
15357;DHT22;7778;48.792;9.260;2023-06-04T04:54:37;14.20;99.90
15357;DHT22;7778;48.792;9.260;2023-06-04T04:57:22;14.50;99.90
15357;DHT22;7778;48.792;9.260;2023-06-04T05:00:11;14.60;99.90
15357;DHT22;7778;48.792;9.260;2023-06-04T05:02:58;14.80;99.90
15357;DHT22;7778;48.792;9.260;2023-06-04T05:05:43;15.60;99.90
15357;DHT22;7778;48.792;9.260;2023-06-04T05:08:29;16.50;99.90
15357;DHT22;7778;48.792;9.260;2023-06-04T05:11:14;17.60;99.90
15357;DHT22;7778;48.792;9.260;2023-06-04T05:14:00;18.70;99.90
15357;DHT22;7778;48.792;9.260;2023-06-04T05:16:47;19.80;99.90
15357;DHT22;7778;48.792;9.260;2023-06-04T05:19:33;20.90;99.90
15357;DHT22;7778;48.792;9.260;2023-06-04T05:22:18;21.30;99.90
15357;DHT22;7778;48.792;9.260;2023-06-04T05:25:05;21.80;97.90
15357;DHT22;7778;48.792;9.260;2023-06-04T05:27:52;21.70;96.30
15357;DHT22;7778;48.792;9.260;2023-06-04T05:30:38;22.20;95.10
15357;DHT22;7778;48.792;9.260;2023-06-04T05:33:26;23.10;92.40
15357;DHT22;7778;48.792;9.260;2023-06-04T05:36:12;23.30;91.40
15357;DHT22;7778;48.792;9.260;2023-06-04T05:38:58;23.40;90.70
15357;DHT22;7778;48.792;9.260;2023-06-04T05:41:44;23.50;89.60
15357;DHT22;7778;48.792;9.260;2023-06-04T05:44:29;23.80;83.50
15357;DHT22;7778;48.792;9.260;2023-06-04T05:47:15;24.30;84.10
15357;DHT22;7778;48.792;9.260;2023-06-04T05:50:04;24.90;82.90
15357;DHT22;7778;48.792;9.260;2023-06-04T05:52:51;25.30;80.70
15357;DHT22;7778;48.792;9.260;2023-06-04T05:55:36;24.60;79.50
15357;DHT22;7778;48.792;9.260;2023-06-04T05:58:22;22.60;81.70
15357;DHT22;7778;48.792;9.260;2023-06-04T06:01:08;21.60;84.90
15357;DHT22;7778;48.792;9.260;2023-06-04T06:03:54;21.20;85.70
15357;DHT22;7778;48.792;9.260;2023-06-04T06:06:41;21.30;86.00
15357;DHT22;7778;48.792;9.260;2023-06-04T06:09:28;21.90;87.70
15357;DHT22;7778;48.792;9.260;2023-06-04T06:12:13;22.30;83.40
15357;DHT22;7778;48.792;9.260;2023-06-04T06:14:59;22.70;83.10
15357;DHT22;7778;48.792;9.260;2023-06-04T06:17:44;22.80;82.90
15357;DHT22;7778;48.792;9.260;2023-06-04T06:20:30;23.10;82.90
15357;DHT22;7778;48.792;9.260;2023-06-04T06:23:17;23.30;82.00
15357;DHT22;7778;48.792;9.260;2023-06-04T06:26:05;23.30;80.10
15357;DHT22;7778;48.792;9.260;2023-06-04T06:28:52;23.00;81.20
15357;DHT22;7778;48.792;9.260;2023-06-04T06:31:38;23.40;81.80
15357;DHT22;7778;48.792;9.260;2023-06-04T06:34:23;23.50;81.50
15357;DHT22;7778;48.792;9.260;2023-06-04T06:37:09;23.60;80.80
15357;DHT22;7778;48.792;9.260;2023-06-04T06:39:55;24.00;80.60
15357;DHT22;7778;48.792;9.260;2023-06-04T06:42:41;24.00;78.60
15357;DHT22;7778;48.792;9.260;2023-06-04T06:45:27;24.40;79.30
15357;DHT22;7778;48.792;9.260;2023-06-04T06:48:12;24.20;77.40
15357;DHT22;7778;48.792;9.260;2023-06-04T06:50:57;23.20;79.60
15357;DHT22;7778;48.792;9.260;2023-06-04T06:53:43;23.50;81.40
15357;DHT22;7778;48.792;9.260;2023-06-04T06:56:30;24.10;78.90
15357;DHT22;7778;48.792;9.260;2023-06-04T06:59:16;24.50;78.20
15357;DHT22;7778;48.792;9.260;2023-06-04T07:02:01;23.80;77.90
15357;DHT22;7778;48.792;9.260;2023-06-04T07:04:47;23.80;79.60
15357;DHT22;7778;48.792;9.260;2023-06-04T07:07:33;24.50;77.00
15357;DHT22;7778;48.792;9.260;2023-06-04T07:10:19;24.00;75.90
15357;DHT22;7778;48.792;9.260;2023-06-04T07:13:06;23.60;77.40
15357;DHT22;7778;48.792;9.260;2023-06-04T07:15:51;24.20;78.20
15357;DHT22;7778;48.792;9.260;2023-06-04T07:18:37;25.30;76.00
15357;DHT22;7778;48.792;9.260;2023-06-04T07:21:22;25.40;74.80
15357;DHT22;7778;48.792;9.260;2023-06-04T07:24:09;25.50;76.30
15357;DHT22;7778;48.792;9.260;2023-06-04T07:26:54;26.40;75.50
15357;DHT22;7778;48.792;9.260;2023-06-04T07:29:43;25.80;73.10
15357;DHT22;7778;48.792;9.260;2023-06-04T07:32:29;26.10;74.90
15357;DHT22;7778;48.792;9.260;2023-06-04T07:35:15;26.60;71.90
15357;DHT22;7778;48.792;9.260;2023-06-04T07:38:01;27.20;70.90
15357;DHT22;7778;48.792;9.260;2023-06-04T07:40:46;27.80;69.40
15357;DHT22;7778;48.792;9.260;2023-06-04T07:43:33;28.20;69.40
15357;DHT22;7778;48.792;9.260;2023-06-04T07:46:21;27.20;68.70
15357;DHT22;7778;48.792;9.260;2023-06-04T07:49:06;25.90;71.40
15357;DHT22;7778;48.792;9.260;2023-06-04T07:51:52;24.70;74.00
15357;DHT22;7778;48.792;9.260;2023-06-04T07:54:37;24.40;76.50
15357;DHT22;7778;48.792;9.260;2023-06-04T07:57:25;25.80;74.40
15357;DHT22;7778;48.792;9.260;2023-06-04T08:00:11;27.60;72.70
15357;DHT22;7778;48.792;9.260;2023-06-04T08:03:00;28.90;71.20
15357;DHT22;7778;48.792;9.260;2023-06-04T08:05:45;28.30;65.50
15357;DHT22;7778;48.792;9.260;2023-06-04T08:08:31;28.20;66.40
15357;DHT22;7778;48.792;9.260;2023-06-04T08:11:18;28.60;67.50
15357;DHT22;7778;48.792;9.260;2023-06-04T08:14:06;28.60;64.70
15357;DHT22;7778;48.792;9.260;2023-06-04T08:16:52;28.50;64.90
15357;DHT22;7778;48.792;9.260;2023-06-04T08:19:39;26.90;67.40
15357;DHT22;7778;48.792;9.260;2023-06-04T08:22:28;27.30;69.00
15357;DHT22;7778;48.792;9.260;2023-06-04T08:25:14;27.60;66.60
15357;DHT22;7778;48.792;9.260;2023-06-04T08:28:00;27.60;66.50
15357;DHT22;7778;48.792;9.260;2023-06-04T08:30:45;28.50;66.10
15357;DHT22;7778;48.792;9.260;2023-06-04T08:33:31;28.60;64.70
15357;DHT22;7778;48.792;9.260;2023-06-04T08:36:18;27.50;64.40
15357;DHT22;7778;48.792;9.260;2023-06-04T08:39:04;26.70;66.70
15357;DHT22;7778;48.792;9.260;2023-06-04T08:41:51;27.00;67.90
15357;DHT22;7778;48.792;9.260;2023-06-04T08:44:38;27.20;67.80
15357;DHT22;7778;48.792;9.260;2023-06-04T08:47:25;27.40;66.40
15357;DHT22;7778;48.792;9.260;2023-06-04T08:50:12;27.40;64.30
15357;DHT22;7778;48.792;9.260;2023-06-04T08:53:01;27.30;70.80
15357;DHT22;7778;48.792;9.260;2023-06-04T08:55:50;27.40;67.40
15357;DHT22;7778;48.792;9.260;2023-06-04T08:58:36;28.10;65.80
15357;DHT22;7778;48.792;9.260;2023-06-04T09:01:25;28.00;64.40
15357;DHT22;7778;48.792;9.260;2023-06-04T09:04:11;28.20;65.40
15357;DHT22;7778;48.792;9.260;2023-06-04T09:07:01;27.50;63.60
15357;DHT22;7778;48.792;9.260;2023-06-04T09:09:49;27.70;66.20
15357;DHT22;7778;48.792;9.260;2023-06-04T09:12:36;28.30;63.00
15357;DHT22;7778;48.792;9.260;2023-06-04T09:15:27;27.80;63.80
15357;DHT22;7778;48.792;9.260;2023-06-04T09:18:12;27.40;66.80
15357;DHT22;7778;48.792;9.260;2023-06-04T09:21:02;28.80;68.30
15357;DHT22;7778;48.792;9.260;2023-06-04T09:23:50;28.20;63.90
15357;DHT22;7778;48.792;9.260;2023-06-04T09:26:37;28.30;63.10
15357;DHT22;7778;48.792;9.260;2023-06-04T09:29:23;29.40;62.60
15357;DHT22;7778;48.792;9.260;2023-06-04T09:32:09;28.20;61.40
15357;DHT22;7778;48.792;9.260;2023-06-04T09:34:55;27.70;62.20
15357;DHT22;7778;48.792;9.260;2023-06-04T09:37:43;28.70;58.80
15357;DHT22;7778;48.792;9.260;2023-06-04T09:40:38;29.00;58.90
15357;DHT22;7778;48.792;9.260;2023-06-04T09:43:25;29.70;58.70
15357;DHT22;7778;48.792;9.260;2023-06-04T09:46:12;28.90;57.20
15357;DHT22;7778;48.792;9.260;2023-06-04T09:49:00;28.30;58.30
15357;DHT22;7778;48.792;9.260;2023-06-04T09:51:47;28.10;57.50
15357;DHT22;7778;48.792;9.260;2023-06-04T09:54:35;28.20;58.50
15357;DHT22;7778;48.792;9.260;2023-06-04T09:57:22;28.40;57.90
15357;DHT22;7778;48.792;9.260;2023-06-04T10:00:10;27.50;57.10
15357;DHT22;7778;48.792;9.260;2023-06-04T10:03:01;29.00;61.00
15357;DHT22;7778;48.792;9.260;2023-06-04T10:05:48;28.80;56.10
15357;DHT22;7778;48.792;9.260;2023-06-04T10:08:34;28.50;58.30
15357;DHT22;7778;48.792;9.260;2023-06-04T10:11:25;29.90;57.90
15357;DHT22;7778;48.792;9.260;2023-06-04T10:14:19;30.80;55.60
15357;DHT22;7778;48.792;9.260;2023-06-04T10:17:08;30.30;53.70
15357;DHT22;7778;48.792;9.260;2023-06-04T10:19:55;30.00;55.80
15357;DHT22;7778;48.792;9.260;2023-06-04T10:22:42;28.90;59.20
15357;DHT22;7778;48.792;9.260;2023-06-04T10:25:40;29.80;57.10
15357;DHT22;7778;48.792;9.260;2023-06-04T10:28:26;28.80;57.10
15357;DHT22;7778;48.792;9.260;2023-06-04T10:31:12;27.70;56.40
15357;DHT22;7778;48.792;9.260;2023-06-04T10:33:59;27.50;57.60
15357;DHT22;7778;48.792;9.260;2023-06-04T10:36:46;28.00;58.90
15357;DHT22;7778;48.792;9.260;2023-06-04T10:39:32;29.60;59.30
15357;DHT22;7778;48.792;9.260;2023-06-04T10:42:21;29.70;56.30
15357;DHT22;7778;48.792;9.260;2023-06-04T10:45:09;29.20;55.50
15357;DHT22;7778;48.792;9.260;2023-06-04T10:48:00;28.60;57.10
15357;DHT22;7778;48.792;9.260;2023-06-04T10:50:52;28.60;57.30
15357;DHT22;7778;48.792;9.260;2023-06-04T10:53:38;28.50;57.90
15357;DHT22;7778;48.792;9.260;2023-06-04T10:56:34;27.80;56.90
15357;DHT22;7778;48.792;9.260;2023-06-04T10:59:20;27.80;60.50
15357;DHT22;7778;48.792;9.260;2023-06-04T11:02:09;27.40;58.70
15357;DHT22;7778;48.792;9.260;2023-06-04T11:05:01;27.30;58.60
15357;DHT22;7778;48.792;9.260;2023-06-04T11:07:51;27.10;58.40
15357;DHT22;7778;48.792;9.260;2023-06-04T11:10:39;26.90;59.70
15357;DHT22;7778;48.792;9.260;2023-06-04T11:13:25;26.70;60.00
15357;DHT22;7778;48.792;9.260;2023-06-04T11:16:15;27.10;59.40
15357;DHT22;7778;48.792;9.260;2023-06-04T11:19:02;27.30;60.70
15357;DHT22;7778;48.792;9.260;2023-06-04T11:21:47;27.70;58.50
15357;DHT22;7778;48.792;9.260;2023-06-04T11:24:35;27.50;58.00
15357;DHT22;7778;48.792;9.260;2023-06-04T11:27:22;27.90;58.20
15357;DHT22;7778;48.792;9.260;2023-06-04T11:30:08;28.40;56.60
15357;DHT22;7778;48.792;9.260;2023-06-04T11:33:03;27.80;55.50
15357;DHT22;7778;48.792;9.260;2023-06-04T11:35:49;28.30;57.10
15357;DHT22;7778;48.792;9.260;2023-06-04T11:38:36;28.30;57.20
15357;DHT22;7778;48.792;9.260;2023-06-04T11:41:23;27.70;56.20
15357;DHT22;7778;48.792;9.260;2023-06-04T11:44:11;27.40;57.70
15357;DHT22;7778;48.792;9.260;2023-06-04T11:46:58;27.00;57.30
15357;DHT22;7778;48.792;9.260;2023-06-04T11:49:45;26.50;57.10
15357;DHT22;7778;48.792;9.260;2023-06-04T11:52:31;26.40;57.90
15357;DHT22;7778;48.792;9.260;2023-06-04T11:55:19;26.80;60.30
15357;DHT22;7778;48.792;9.260;2023-06-04T11:58:06;27.50;58.20
15357;DHT22;7778;48.792;9.260;2023-06-04T12:00:52;28.10;58.40
15357;DHT22;7778;48.792;9.260;2023-06-04T12:03:39;28.40;56.60
15357;DHT22;7778;48.792;9.260;2023-06-04T12:06:25;28.50;59.60
15357;DHT22;7778;48.792;9.260;2023-06-04T12:09:29;28.90;62.30
15357;DHT22;7778;48.792;9.260;2023-06-04T12:12:22;29.00;58.30
15357;DHT22;7778;48.792;9.260;2023-06-04T12:15:10;28.20;59.10
15357;DHT22;7778;48.792;9.260;2023-06-04T12:17:56;28.10;58.00
15357;DHT22;7778;48.792;9.260;2023-06-04T12:20:42;28.30;59.40
15357;DHT22;7778;48.792;9.260;2023-06-04T12:23:27;28.50;56.90
15357;DHT22;7778;48.792;9.260;2023-06-04T12:26:20;28.30;54.50
15357;DHT22;7778;48.792;9.260;2023-06-04T12:29:13;27.20;56.90
15357;DHT22;7778;48.792;9.260;2023-06-04T12:32:05;26.90;56.00
15357;DHT22;7778;48.792;9.260;2023-06-04T12:34:53;27.20;60.40
15357;DHT22;7778;48.792;9.260;2023-06-04T12:37:38;27.60;59.20
15357;DHT22;7778;48.792;9.260;2023-06-04T12:40:24;28.00;57.40
15357;DHT22;7778;48.792;9.260;2023-06-04T12:43:12;28.30;58.00
15357;DHT22;7778;48.792;9.260;2023-06-04T12:45:59;28.50;58.80
15357;DHT22;7778;48.792;9.260;2023-06-04T12:48:46;28.30;55.00
15357;DHT22;7778;48.792;9.260;2023-06-04T12:51:32;28.30;55.80
15357;DHT22;7778;48.792;9.260;2023-06-04T12:54:18;27.90;56.30
15357;DHT22;7778;48.792;9.260;2023-06-04T12:57:04;27.60;56.20
15357;DHT22;7778;48.792;9.260;2023-06-04T12:59:50;27.50;54.90
15357;DHT22;7778;48.792;9.260;2023-06-04T13:02:36;27.30;55.80
15357;DHT22;7778;48.792;9.260;2023-06-04T13:05:23;27.20;57.50
15357;DHT22;7778;48.792;9.260;2023-06-04T13:08:09;27.50;60.10
15357;DHT22;7778;48.792;9.260;2023-06-04T13:10:55;27.80;58.40
15357;DHT22;7778;48.792;9.260;2023-06-04T13:13:43;28.20;61.30
15357;DHT22;7778;48.792;9.260;2023-06-04T13:16:35;28.20;56.70
15357;DHT22;7778;48.792;9.260;2023-06-04T13:19:22;27.50;55.80
15357;DHT22;7778;48.792;9.260;2023-06-04T13:22:09;27.30;54.40
15357;DHT22;7778;48.792;9.260;2023-06-04T13:24:55;26.90;54.80
15357;DHT22;7778;48.792;9.260;2023-06-04T13:27:40;26.80;57.60
15357;DHT22;7778;48.792;9.260;2023-06-04T13:30:26;27.00;55.00
15357;DHT22;7778;48.792;9.260;2023-06-04T13:33:12;27.00;54.40
15357;DHT22;7778;48.792;9.260;2023-06-04T13:35:58;26.80;54.10
15357;DHT22;7778;48.792;9.260;2023-06-04T13:38:45;26.60;52.00
15357;DHT22;7778;48.792;9.260;2023-06-04T13:41:31;26.40;55.10
15357;DHT22;7778;48.792;9.260;2023-06-04T13:44:17;26.40;54.30
15357;DHT22;7778;48.792;9.260;2023-06-04T13:47:03;26.30;56.50
15357;DHT22;7778;48.792;9.260;2023-06-04T13:49:48;26.10;55.90
15357;DHT22;7778;48.792;9.260;2023-06-04T13:52:34;26.20;56.80
15357;DHT22;7778;48.792;9.260;2023-06-04T13:55:21;26.30;55.80
15357;DHT22;7778;48.792;9.260;2023-06-04T13:58:06;26.50;53.80
15357;DHT22;7778;48.792;9.260;2023-06-04T14:00:52;26.20;54.50
15357;DHT22;7778;48.792;9.260;2023-06-04T14:03:38;26.20;57.50
15357;DHT22;7778;48.792;9.260;2023-06-04T14:06:24;26.40;56.70
15357;DHT22;7778;48.792;9.260;2023-06-04T14:09:10;26.50;56.50
15357;DHT22;7778;48.792;9.260;2023-06-04T14:11:58;26.50;55.10
15357;DHT22;7778;48.792;9.260;2023-06-04T14:14:43;26.60;54.70
15357;DHT22;7778;48.792;9.260;2023-06-04T14:17:29;26.70;56.40
15357;DHT22;7778;48.792;9.260;2023-06-04T14:20:14;26.80;55.40
15357;DHT22;7778;48.792;9.260;2023-06-04T14:23:00;26.70;56.40
15357;DHT22;7778;48.792;9.260;2023-06-04T14:25:46;26.60;54.20
15357;DHT22;7778;48.792;9.260;2023-06-04T14:28:32;26.40;54.60
15357;DHT22;7778;48.792;9.260;2023-06-04T14:31:18;26.30;55.10
15357;DHT22;7778;48.792;9.260;2023-06-04T14:34:04;26.20;54.60
15357;DHT22;7778;48.792;9.260;2023-06-04T14:36:51;26.20;52.50
15357;DHT22;7778;48.792;9.260;2023-06-04T14:39:37;26.30;54.00
15357;DHT22;7778;48.792;9.260;2023-06-04T14:42:22;26.10;52.00
15357;DHT22;7778;48.792;9.260;2023-06-04T14:45:10;26.20;52.50
15357;DHT22;7778;48.792;9.260;2023-06-04T14:47:55;25.90;52.70
15357;DHT22;7778;48.792;9.260;2023-06-04T14:50:42;25.90;52.80
15357;DHT22;7778;48.792;9.260;2023-06-04T14:53:27;25.90;52.20
15357;DHT22;7778;48.792;9.260;2023-06-04T14:56:14;25.70;52.10
15357;DHT22;7778;48.792;9.260;2023-06-04T14:59:00;25.40;52.10
15357;DHT22;7778;48.792;9.260;2023-06-04T15:01:47;25.40;52.80
15357;DHT22;7778;48.792;9.260;2023-06-04T15:04:33;25.40;52.00
15357;DHT22;7778;48.792;9.260;2023-06-04T15:07:22;25.50;54.80
15357;DHT22;7778;48.792;9.260;2023-06-04T15:10:08;25.50;54.90
15357;DHT22;7778;48.792;9.260;2023-06-04T15:12:54;25.60;54.10
15357;DHT22;7778;48.792;9.260;2023-06-04T15:15:40;25.70;53.10
15357;DHT22;7778;48.792;9.260;2023-06-04T15:18:27;25.60;55.10
15357;DHT22;7778;48.792;9.260;2023-06-04T15:21:12;25.80;53.80
15357;DHT22;7778;48.792;9.260;2023-06-04T15:23:58;25.70;52.20
15357;DHT22;7778;48.792;9.260;2023-06-04T15:26:45;25.40;53.20
15357;DHT22;7778;48.792;9.260;2023-06-04T15:29:31;25.20;52.20
15357;DHT22;7778;48.792;9.260;2023-06-04T15:32:16;25.10;51.80
15357;DHT22;7778;48.792;9.260;2023-06-04T15:35:03;25.10;55.00
15357;DHT22;7778;48.792;9.260;2023-06-04T15:37:49;25.30;54.20
15357;DHT22;7778;48.792;9.260;2023-06-04T15:40:35;25.40;54.50
15357;DHT22;7778;48.792;9.260;2023-06-04T15:43:20;25.50;55.10
15357;DHT22;7778;48.792;9.260;2023-06-04T15:46:06;25.50;53.20
15357;DHT22;7778;48.792;9.260;2023-06-04T15:48:52;25.50;54.20
15357;DHT22;7778;48.792;9.260;2023-06-04T15:51:39;25.50;54.90
15357;DHT22;7778;48.792;9.260;2023-06-04T15:54:24;25.50;54.40
15357;DHT22;7778;48.792;9.260;2023-06-04T15:57:10;25.40;53.70
15357;DHT22;7778;48.792;9.260;2023-06-04T15:59:55;25.50;53.60
15357;DHT22;7778;48.792;9.260;2023-06-04T16:02:41;25.20;52.00
15357;DHT22;7778;48.792;9.260;2023-06-04T16:05:27;25.10;54.40
15357;DHT22;7778;48.792;9.260;2023-06-04T16:08:14;25.20;57.70
15357;DHT22;7778;48.792;9.260;2023-06-04T16:11:01;25.30;55.80
15357;DHT22;7778;48.792;9.260;2023-06-04T16:13:47;25.40;56.60
15357;DHT22;7778;48.792;9.260;2023-06-04T16:16:32;25.40;54.00
15357;DHT22;7778;48.792;9.260;2023-06-04T16:19:19;25.30;56.00
15357;DHT22;7778;48.792;9.260;2023-06-04T16:22:04;25.30;55.60
15357;DHT22;7778;48.792;9.260;2023-06-04T16:24:51;25.30;55.20
15357;DHT22;7778;48.792;9.260;2023-06-04T16:27:36;25.30;54.50
15357;DHT22;7778;48.792;9.260;2023-06-04T16:30:22;25.30;54.20
15357;DHT22;7778;48.792;9.260;2023-06-04T16:33:08;25.10;54.20
15357;DHT22;7778;48.792;9.260;2023-06-04T16:35:54;25.20;56.20
15357;DHT22;7778;48.792;9.260;2023-06-04T16:38:40;25.20;55.00
15357;DHT22;7778;48.792;9.260;2023-06-04T16:41:26;25.10;55.20
15357;DHT22;7778;48.792;9.260;2023-06-04T16:44:12;25.10;56.00
15357;DHT22;7778;48.792;9.260;2023-06-04T16:46:58;25.00;55.40
15357;DHT22;7778;48.792;9.260;2023-06-04T16:49:43;24.90;54.40
15357;DHT22;7778;48.792;9.260;2023-06-04T16:52:29;24.80;55.00
15357;DHT22;7778;48.792;9.260;2023-06-04T16:55:15;24.80;56.00
15357;DHT22;7778;48.792;9.260;2023-06-04T16:58:02;24.80;56.00
15357;DHT22;7778;48.792;9.260;2023-06-04T17:00:48;24.70;55.40
15357;DHT22;7778;48.792;9.260;2023-06-04T17:03:34;24.70;55.30
15357;DHT22;7778;48.792;9.260;2023-06-04T17:06:20;24.70;56.40
15357;DHT22;7778;48.792;9.260;2023-06-04T17:09:06;24.60;54.80
15357;DHT22;7778;48.792;9.260;2023-06-04T17:11:51;24.50;54.90
15357;DHT22;7778;48.792;9.260;2023-06-04T17:14:38;24.50;55.20
15357;DHT22;7778;48.792;9.260;2023-06-04T17:17:23;24.50;56.50
15357;DHT22;7778;48.792;9.260;2023-06-04T17:20:10;24.40;55.40
15357;DHT22;7778;48.792;9.260;2023-06-04T17:22:58;24.40;55.10
15357;DHT22;7778;48.792;9.260;2023-06-04T17:25:44;24.30;55.40
15357;DHT22;7778;48.792;9.260;2023-06-04T17:28:29;24.10;54.60
15357;DHT22;7778;48.792;9.260;2023-06-04T17:31:16;24.00;55.30
15357;DHT22;7778;48.792;9.260;2023-06-04T17:34:02;24.10;55.00
15357;DHT22;7778;48.792;9.260;2023-06-04T17:36:47;24.10;55.10
15357;DHT22;7778;48.792;9.260;2023-06-04T17:39:33;24.00;55.10
15357;DHT22;7778;48.792;9.260;2023-06-04T17:42:19;23.90;55.00
15357;DHT22;7778;48.792;9.260;2023-06-04T17:45:06;23.80;54.50
15357;DHT22;7778;48.792;9.260;2023-06-04T17:47:57;23.80;54.30
15357;DHT22;7778;48.792;9.260;2023-06-04T17:50:42;23.80;54.80